Time;durP1;ratioP1;P1;durP2;ratioP2;P2;SDS_P1;SDS_P2;PMS_P1;PMS_P2;Temp;Humidity;BMP_temperature;BMP_pressure;BME280_temperature;BME280_humidity;BME280_pressure;Samples;Min_cycle;Max_cycle;Signal;HPM_P1;HPM_P2
2021/09/02 00:01:56;352618.00;1.18;608.36;0.00;0.00;0.62;;;;;19.40;1.00;;;;;;2570915;55;1225;-89
2021/09/02 00:04:24;457494.00;1.52;788.67;0.00;0.00;0.62;;;;;19.40;1.00;;;;;;2546798;56;1054;-91
2021/09/02 00:06:51;458164.00;1.53;789.83;0.00;0.00;0.62;;;;;19.50;1.00;;;;;;2547091;56;1116;-90
2021/09/02 00:09:22;399732.00;1.33;689.34;0.00;0.00;0.62;;;;;19.60;1.00;;;;;;2541779;56;950;-90
2021/09/02 00:11:49;578579.00;1.93;997.25;69552.00;0.23;120.99;;;;;19.40;1.00;;;;;;2541938;56;1350;-90
2021/09/02 00:14:19;498070.00;1.66;858.50;88666.00;0.30;154.00;;;;;18.90;1.00;;;;;;2541840;56;1910;-89
2021/09/02 00:17:09;627989.00;2.09;1082.57;0.00;0.00;0.62;;;;;18.90;1.00;;;;;;2541965;56;1159;-89
2021/09/02 00:19:57;672572.00;2.24;1159.71;64052.00;0.21;111.48;;;;;19.20;1.00;;;;;;2531738;56;1059;-90
2021/09/02 00:22:38;988979.00;3.30;1712.96;84047.00;0.28;146.03;;;;;19.50;1.00;;;;;;2517004;56;1269;-90
2021/09/02 00:25:08;1061872.00;3.54;1842.37;67302.00;0.22;117.10;;;;;19.70;1.00;;;;;;2511926;57;1116;-90
2021/09/02 00:27:36;627061.00;2.09;1080.97;0.00;0.00;0.62;;;;;19.80;1.00;;;;;;2512390;57;1084;-89
2021/09/02 00:30:04;614077.00;2.05;1058.53;0.00;0.00;0.62;;;;;19.80;1.00;;;;;;2517004;57;1182;-90
2021/09/02 00:32:35;560153.00;1.87;965.46;0.00;0.00;0.62;;;;;19.70;1.00;;;;;;2506760;57;1957;-89
2021/09/02 00:35:03;642226.00;2.14;1107.19;0.00;0.00;0.62;;;;;19.80;1.00;;;;;;2507208;57;988;-90
2021/09/02 00:37:30;466279.00;1.55;803.79;0.00;0.00;0.62;;;;;19.90;1.00;;;;;;2502186;57;1172;-89
2021/09/02 00:39:59;565146.00;1.88;974.07;0.00;0.00;0.62;;;;;19.80;1.00;;;;;;2502037;57;1111;-90
2021/09/02 00:42:27;609121.00;2.03;1049.97;0.00;0.00;0.62;;;;;19.70;1.00;;;;;;2508285;56;1401;-91
2021/09/02 00:44:54;850117.00;2.83;1468.67;0.00;0.00;0.62;;;;;19.60;1.00;;;;;;2511866;57;972;-91
2021/09/02 00:47:22;705349.00;2.35;1216.52;117.00;0.00;0.82;;;;;19.50;1.00;;;;;;2511820;57;997;-89
2021/09/02 00:49:50;702773.00;2.34;1212.05;89964.00;0.30;156.25;;;;;19.20;1.00;;;;;;2517345;56;1021;-88
2021/09/02 00:52:21;830747.00;2.77;1434.80;31659.00;0.11;55.45;;;;;19.40;1.00;;;;;;2521858;56;1900;-89
2021/09/02 00:54:50;868128.00;2.89;1500.21;2613.00;0.01;5.15;;;;;19.60;1.00;;;;;;2525931;56;1138;-90
2021/09/02 00:57:21;865086.00;2.88;1494.88;0.00;0.00;0.62;;;;;19.30;1.00;;;;;;2528917;56;1028;-88
2021/09/02 00:59:51;629995.00;2.10;1086.04;0.00;0.00;0.62;;;;;18.80;1.00;;;;;;2542112;56;1127;-90
2021/09/02 01:02:18;736593.00;2.46;1270.75;84415.00;0.28;146.66;;;;;19.00;1.00;;;;;;2552771;56;1363;-89
2021/09/02 01:04:53;853307.00;2.84;1474.26;0.00;0.00;0.62;;;;;19.00;1.00;;;;;;2557974;56;1176;-89
2021/09/02 01:07:20;664896.00;2.22;1146.42;78576.00;0.26;136.58;;;;;18.80;1.00;;;;;;2554373;56;1122;-90
2021/09/02 01:09:51;524805.00;1.75;904.54;32953.00;0.11;57.69;;;;;18.50;1.00;;;;;;2549155;56;1031;-89
2021/09/02 01:12:29;469378.00;1.56;809.12;114466.00;0.38;198.54;;;;;18.70;1.00;;;;;;2553047;56;1958;-90
2021/09/02 01:14:59;622317.00;2.07;1072.77;0.00;0.00;0.62;;;;;19.00;1.00;;;;;;2556994;56;1066;-89
2021/09/02 01:17:27;781318.00;2.60;1348.56;0.00;0.00;0.62;;;;;19.10;1.00;;;;;;2541661;56;944;-89
2021/09/02 01:20:02;666818.00;2.22;1149.74;0.00;0.00;0.62;;;;;19.00;1.00;;;;;;2541674;56;1148;-89
2021/09/02 01:22:32;554306.00;1.85;955.38;14344.00;0.05;25.47;;;;;19.10;1.00;;;;;;2536614;56;1313;-91
2021/09/02 01:25:01;485925.00;1.62;837.59;29556.00;0.10;51.81;;;;;19.30;1.00;;;;;;2526666;56;975;-90
2021/09/02 01:27:30;562057.00;1.87;968.75;0.00;0.00;0.62;;;;;19.20;1.00;;;;;;2531581;56;1003;-89
2021/09/02 01:29:58;487466.00;1.62;840.25;26586.00;0.09;46.67;;;;;18.80;1.00;;;;;;2534781;56;1139;-89
2021/09/02 01:32:28;465449.00;1.55;802.36;0.00;0.00;0.62;;;;;18.40;1.00;;;;;;2541713;56;1899;-90
2021/09/02 01:34:56;514165.00;1.71;886.21;31177.00;0.10;54.62;;;;;17.90;1.00;;;;;;2541812;56;993;-90
2021/09/02 01:37:25;722395.00;2.41;1246.10;50186.00;0.17;87.51;;;;;18.00;1.00;;;;;;2541797;56;1144;-90
2021/09/02 01:39:54;553754.00;1.85;954.43;0.00;0.00;0.62;;;;;18.10;1.00;;;;;;2538290;56;1150;-89
2021/09/02 01:42:23;621211.00;2.07;1070.86;0.00;0.00;0.62;;;;;18.50;1.00;;;;;;2547681;56;1308;-89
2021/09/02 01:44:51;532355.00;1.77;917.55;0.00;0.00;0.62;;;;;18.70;1.00;;;;;;2553791;56;938;-89
2021/09/02 01:47:25;501842.00;1.67;865.00;0.00;0.00;0.62;;;;;19.00;1.00;;;;;;2553567;56;966;-89
2021/09/02 01:54:59;301728.00;1.01;520.89;0.00;0.00;0.62;;;;;18.80;1.00;;;;;;2581093;55;567;-89
2021/09/02 01:57:29;543062.00;1.81;936.00;0.00;0.00;0.62;;;;;18.80;1.00;;;;;;2583255;55;1141;-90
2021/09/02 02:02:24;290699.00;0.97;501.93;0.00;0.00;0.62;;;;;19.20;1.00;;;;;;2581091;55;1325;-89
2021/09/02 02:07:25;375866.00;1.25;648.32;0.00;0.00;0.62;;;;;19.20;1.00;;;;;;2581356;55;1033;-90
2021/09/02 02:09:53;487815.00;1.63;840.85;72845.00;0.24;126.68;;;;;19.00;1.00;;;;;;2567035;56;937;-90
2021/09/02 02:12:20;387879.00;1.29;668.97;0.00;0.00;0.62;;;;;18.80;1.00;;;;;;2567289;56;1296;-89
2021/09/02 02:14:48;501713.00;1.67;864.77;20463.00;0.07;36.07;;;;;18.70;1.00;;;;;;2556842;56;1960;-89
2021/09/02 02:17:16;500857.00;1.67;863.30;0.00;0.00;0.62;;;;;18.80;1.00;;;;;;2557058;56;991;-90
2021/09/02 02:19:43;445669.00;1.49;768.33;0.00;0.00;0.62;;;;;18.50;1.00;;;;;;2557067;56;970;-90
2021/09/02 02:22:10;441642.00;1.47;761.41;0.00;0.00;0.62;;;;;18.10;1.00;;;;;;2557054;56;1370;-89
2021/09/02 02:24:37;406394.00;1.35;700.80;0.00;0.00;0.62;;;;;18.10;1.00;;;;;;2551763;56;959;-89
2021/09/02 02:27:04;399446.00;1.33;688.85;89891.00;0.30;156.12;;;;;18.40;1.00;;;;;;2537193;56;1052;-89
2021/09/02 02:32:01;508273.00;1.69;876.07;17183.00;0.06;30.39;;;;;18.80;1.00;;;;;;2583014;55;1324;-89
2021/09/02 02:34:28;427499.00;1.42;737.08;0.00;0.00;0.62;;;;;18.60;1.00;;;;;;2583413;55;1906;-89
2021/09/02 02:36:57;550442.00;1.83;948.72;0.00;0.00;0.62;;;;;18.50;1.00;;;;;;2572356;55;943;-89
2021/09/02 02:39:24;554399.00;1.85;955.54;0.00;0.00;0.62;;;;;18.70;1.00;;;;;;2556840;56;1158;-89
2021/09/02 02:41:51;383279.00;1.28;661.06;0.00;0.00;0.62;;;;;18.90;1.00;;;;;;2556839;56;1380;-90
2021/09/02 02:44:19;602916.00;2.01;1039.26;23581.00;0.08;41.47;;;;;19.00;1.00;;;;;;2544222;56;1150;-90
2021/09/02 02:49:15;337772.00;1.13;582.84;0.00;0.00;0.62;;;;;18.60;1.00;;;;;;2585340;55;1134;-90
2021/09/02 02:51:45;551585.00;1.84;950.69;30082.00;0.10;52.73;;;;;17.90;1.00;;;;;;2571608;55;1368;-90
2021/09/02 02:56:47;385510.00;1.29;664.90;0.00;0.00;0.62;;;;;17.20;1.00;;;;;;2581086;55;595;-90
2021/09/02 02:59:15;593131.00;1.98;1022.36;0.00;0.00;0.62;;;;;17.40;1.00;;;;;;2567116;55;1165;-90
2021/09/02 03:01:42;648900.00;2.16;1118.73;9278.00;0.03;16.70;;;;;17.60;1.00;;;;;;2551633;56;1315;-90
2021/09/02 03:04:09;648998.00;2.16;1118.90;58248.00;0.19;101.45;;;;;17.10;1.00;;;;;;2546690;56;983;-90
2021/09/02 03:06:38;543344.00;1.81;936.49;230.00;0.00;1.02;;;;;16.90;1.00;;;;;;2546610;56;982;-90
2021/09/02 03:09:06;599269.00;2.00;1032.96;0.00;0.00;0.62;;;;;17.40;1.00;;;;;;2546771;56;1023;-90
2021/09/02 03:11:34;381839.00;1.27;658.59;0.00;0.00;0.62;;;;;17.70;1.00;;;;;;2546679;56;1368;-89
2021/09/02 03:16:33;421673.00;1.41;727.07;0.00;0.00;0.62;;;;;17.20;1.00;;;;;;2586997;55;434;-91
2021/09/02 03:19:00;568348.00;1.89;979.60;43229.00;0.14;75.47;;;;;17.20;1.00;;;;;;2572310;55;910;-91
2021/09/02 03:21:27;543010.00;1.81;935.91;0.00;0.00;0.62;;;;;17.10;1.00;;;;;;2556516;56;1341;-89
2021/09/02 03:23:56;580622.00;1.94;1000.77;59639.00;0.20;103.85;;;;;17.00;1.00;;;;;;2556840;56;1081;-90
2021/09/02 03:34:04;390425.00;1.30;673.35;0.00;0.00;0.62;;;;;17.40;1.00;;;;;;2580943;55;1886;-89
2021/09/02 03:41:36;515595.00;1.72;888.68;0.00;0.00;0.62;;;;;18.20;1.00;;;;;;2580817;55;1313;-92
2021/09/02 03:44:04;556673.00;1.86;959.46;285.00;0.00;1.11;;;;;18.30;1.00;;;;;;2572091;55;921;-89
2021/09/02 03:59:10;538362.00;1.79;927.90;25191.00;0.08;44.26;;;;;17.20;1.00;;;;;;2581282;55;914;-90
2021/09/02 04:04:08;419480.00;1.40;723.30;0.00;0.00;0.62;;;;;16.90;1.00;;;;;;2580896;55;531;-91
2021/09/02 04:11:32;344927.00;1.15;595.14;0.00;0.00;0.62;;;;;17.80;1.00;;;;;;2573139;40;3774;-86
2021/09/02 04:14:01;531074.00;1.77;915.34;0.00;0.00;0.62;;;;;17.80;1.00;;;;;;2561581;56;1956;-91
2021/09/02 04:19:03;488473.00;1.63;841.98;0.00;0.00;0.62;;;;;18.30;1.00;;;;;;2580933;55;550;-91
2021/09/02 04:42:01;437360.00;1.46;754.04;0.00;0.00;0.62;;;;;17.50;1.00;;;;;;2578878;55;1246;-91
2021/09/02 04:54:28;427217.00;1.42;736.60;0.00;0.00;0.62;;;;;17.80;1.00;;;;;;2575705;55;1909;-91
2021/09/02 05:20:34;470769.00;1.57;811.51;0.00;0.00;0.62;;;;;18.50;1.00;;;;;;2570503;56;626;-89
2021/09/02 05:23:06;806049.00;2.69;1391.68;97615.00;0.33;169.45;;;;;18.40;1.00;;;;;;2556567;56;1348;-90
2021/09/02 09:25:42;262315.00;0.87;453.13;5795.00;0.02;10.66;;;;;23.40;1.00;;;;;;2543183;40;2237;31
2021/09/02 09:30:49;625066.00;2.08;1077.52;102089.00;0.34;177.18;;;;;22.10;1.00;;;;;;2570982;56;1359;-89
2021/09/02 09:41:07;293844.00;0.98;507.34;0.00;0.00;0.62;;;;;21.50;1.00;;;;;;2580542;55;1345;-89
2021/09/02 10:04:31;208584.00;0.70;360.70;0.00;0.00;0.62;;;;;22.30;1.00;;;;;;2575928;55;576;-89
2021/09/02 11:03:25;165033.00;0.55;285.71;0.00;0.00;0.62;;;;;24.90;1.00;;;;;;2578909;55;563;-88
2021/09/02 11:05:56;252590.00;0.84;436.41;0.00;0.00;0.62;;;;;24.80;1.00;;;;;;2581834;55;1137;-88
2021/09/02 11:08:33;112986.00;0.38;195.98;0.00;0.00;0.62;;;;;24.80;1.00;;;;;;2581128;55;1518;-87
2021/09/02 11:11:12;205163.00;0.68;354.81;0.00;0.00;0.62;;;;;25.00;1.00;;;;;;2579855;55;1241;-90
2021/09/02 11:13:43;238242.00;0.79;411.73;76760.00;0.26;133.44;;;;;25.10;1.00;;;;;;2580110;55;1901;-89
2021/09/02 11:16:10;505314.00;1.68;870.97;73120.00;0.24;127.15;;;;;24.70;1.00;;;;;;2576154;55;1086;-88
2021/09/02 11:18:43;117935504.00;393.12;66445804.00;77192.00;0.26;134.19;;;;;24.60;1.00;;;;;;2576613;55;1156;-88
2021/09/02 11:21:14;410775.00;1.37;708.33;51494.00;0.17;89.77;;;;;24.50;1.00;;;;;;2572789;56;1352;-89
2021/09/02 11:23:44;454225.00;1.51;783.05;134195.00;0.45;232.56;;;;;24.90;1.00;;;;;;2570776;55;1097;-88
2021/09/02 11:26:11;255393.00;0.85;441.23;65299.00;0.22;113.64;;;;;24.90;1.00;;;;;;2566626;56;1041;-88
2021/09/02 11:28:49;182809.00;0.61;316.33;0.00;0.00;0.62;;;;;24.60;1.00;;;;;;2567068;56;974;-90
2021/09/02 11:33:52;303141.00;1.01;523.32;72727.00;0.24;126.47;;;;;25.50;1.00;;;;;;2579829;55;1882;-88
2021/09/02 11:36:21;415759.00;1.39;716.90;73373.00;0.24;127.59;;;;;25.50;1.00;;;;;;2582595;55;1058;-90
2021/09/02 11:38:50;379646.00;1.27;654.82;63956.00;0.21;111.32;;;;;25.50;1.00;;;;;;2580192;55;1732;-89
2021/09/02 11:41:20;211203.00;0.70;365.21;21358.00;0.07;37.62;;;;;25.60;1.00;;;;;;2579224;55;1311;-90
2021/09/02 11:43:47;347598.00;1.16;599.73;0.00;0.00;0.62;;;;;25.40;1.00;;;;;;2578193;55;1180;-89
2021/09/02 11:46:26;237095.00;0.79;409.75;0.00;0.00;0.62;;;;;25.10;1.00;;;;;;2578249;55;1724;-90
2021/09/02 11:48:59;206299.00;0.69;356.77;0.00;0.00;0.62;;;;;24.90;1.00;;;;;;2578208;55;1078;-90
2021/09/02 11:51:44;370827.00;1.24;639.66;0.00;0.00;0.62;;;;;25.20;1.00;;;;;;2577938;55;1441;-88
2021/09/02 11:54:13;271173.00;0.90;468.36;0.00;0.00;0.62;;;;;25.50;1.00;;;;;;2561936;56;1912;-90
2021/09/02 11:59:48;364027.00;1.21;627.97;39515.00;0.13;69.05;;;;;25.50;1.00;;;;;;2554169;56;1096;-89
2021/09/02 12:02:17;613014.00;2.04;1056.70;69705.00;0.23;121.25;;;;;25.40;1.00;;;;;;2556949;56;1385;-89
2021/09/02 12:04:50;271248.00;0.90;468.49;110047.00;0.37;190.91;;;;;25.20;1.00;;;;;;2557031;56;1045;-90
2021/09/02 12:07:18;115239.00;0.38;199.87;0.00;0.00;0.62;;;;;25.40;1.00;;;;;;2557071;56;999;-89
2021/09/02 12:09:52;369544.00;1.23;637.45;11089.00;0.04;19.84;;;;;25.90;1.00;;;;;;2556908;56;1588;-90
2021/09/02 12:12:31;350294.00;1.17;604.37;0.00;0.00;0.62;;;;;26.10;1.00;;;;;;2559908;56;1363;-90
2021/09/02 12:15:05;154174.00;0.51;267.00;0.00;0.00;0.62;;;;;26.10;1.00;;;;;;2564340;55;1945;-90
2021/09/02 12:17:33;280972.00;0.94;485.21;0.00;0.00;0.62;;;;;26.10;1.00;;;;;;2578014;55;1589;-88
2021/09/02 12:20:07;253388.00;0.84;437.78;0.00;0.00;0.62;;;;;26.10;1.00;;;;;;2578125;55;1494;-90
2021/09/02 12:22:42;482364.00;1.61;831.47;52516.00;0.18;91.54;;;;;25.90;1.00;;;;;;2577875;55;1568;-89
2021/09/02 12:25:11;317549.00;1.06;548.09;0.00;0.00;0.62;;;;;25.90;1.00;;;;;;2577749;55;911;-88
2021/09/02 12:27:42;270259.00;0.90;466.79;0.00;0.00;0.62;;;;;25.10;1.00;;;;;;2577730;55;1101;-89
2021/09/02 12:30:32;376772.00;1.26;649.88;0.00;0.00;0.62;;;;;24.70;1.00;;;;;;2575947;55;1085;-90
2021/09/02 12:33:10;332411.00;1.11;573.63;0.00;0.00;0.62;;;;;24.60;1.00;;;;;;2577655;55;1297;-89
2021/09/02 12:38:39;455104.00;1.52;784.56;70380.00;0.23;122.42;;;;;25.10;1.00;;;;;;2546506;56;1204;-88
2021/09/02 14:35:35;188531.00;0.63;326.18;0.00;0.00;0.62;;;;;25.80;1.00;;;;;;2581066;55;1916;-90
2021/09/02 14:38:02;723139.00;2.41;1247.39;98594.00;0.33;171.14;;;;;25.40;1.00;;;;;;2583400;55;1225;-90
2021/09/02 14:40:29;584168.00;1.95;1006.89;33887.00;0.11;59.31;;;;;25.40;1.00;;;;;;2580859;55;1574;-89
2021/09/02 14:42:56;954308.00;3.18;1651.71;28166.00;0.09;49.41;;;;;25.70;1.00;;;;;;2580649;55;1517;-88
2021/09/02 14:45:25;314500.00;1.05;542.84;0.00;0.00;0.62;;;;;25.80;1.00;;;;;;2580759;55;1143;-90
2021/09/02 14:47:54;269515.00;0.90;465.51;0.00;0.00;0.62;;;;;26.00;1.00;;;;;;2583207;55;1546;-87
2021/09/02 14:50:28;1008993.00;3.36;1748.41;28987.00;0.10;50.83;;;;;26.20;1.00;;;;;;2583316;55;1640;-89
2021/09/02 14:52:59;1075164.00;3.58;1866.06;48721.00;0.16;84.97;;;;;26.30;1.00;;;;;;2583366;55;1422;-88
2021/09/02 14:59:35;1013066.00;3.38;1755.63;1985.00;0.01;4.06;;;;;26.00;1.00;;;;;;2580592;55;1126;-87
2021/09/02 15:02:11;1660085.00;5.53;2948.13;98004.00;0.33;170.13;;;;;26.20;1.00;;;;;;2577760;55;1659;-90
2021/09/02 15:04:38;979757.00;3.27;1696.65;40982.00;0.14;71.59;;;;;25.70;1.00;;;;;;2583318;55;1588;-88
2021/09/02 15:07:57;887294.00;2.96;1533.81;24220.00;0.08;42.58;;;;;25.60;1.00;;;;;;2583405;55;1165;-89
2021/09/02 15:11:10;1123998.00;3.75;1953.39;58099.00;0.19;101.19;;;;;25.50;1.00;;;;;;2552906;56;1820;-89
2021/09/02 15:13:44;328758.00;1.10;567.35;0.00;0.00;0.62;;;;;25.60;1.00;;;;;;2536006;56;950;-88
2021/09/02 15:16:11;307241.00;1.02;530.37;0.00;0.00;0.62;;;;;25.70;1.00;;;;;;2531817;56;1965;-89
2021/09/02 15:18:38;291707.00;0.97;503.66;27502.00;0.09;48.26;;;;;25.90;1.00;;;;;;2529744;56;1036;-89
2021/09/02 15:46:56;235676.00;0.79;407.31;17387.00;0.06;30.74;;;;;25.90;1.00;;;;;;2580201;55;601;-89
2021/09/02 15:49:24;294208.00;0.98;507.96;0.00;0.00;0.62;;;;;25.40;1.00;;;;;;2571868;55;1042;-90
2021/09/02 15:54:23;136130.00;0.45;235.90;0.00;0.00;0.62;;;;;25.70;1.00;;;;;;2582833;55;808;-88
2021/09/02 15:57:03;308901.00;1.03;533.22;75346.00;0.25;131.00;;;;;25.90;1.00;;;;;;2586638;55;1065;-89
2021/09/02 15:59:30;392511.00;1.31;676.93;0.00;0.00;0.62;;;;;25.90;1.00;;;;;;2586624;55;1148;-89
2021/09/02 16:01:58;117365504.00;391.22;65486180.00;28818.00;0.10;50.54;;;;;25.90;1.00;;;;;;2578395;55;1410;-87
2021/09/02 16:04:25;253561.00;0.85;438.08;0.00;0.00;0.62;;;;;26.10;1.00;;;;;;2586844;55;1081;-88
2021/09/02 16:06:53;157762.00;0.53;273.18;0.00;0.00;0.62;;;;;26.30;1.00;;;;;;2586186;55;1172;-88
2021/09/02 16:09:19;233724.00;0.78;403.96;0.00;0.00;0.62;;;;;26.40;1.00;;;;;;2581269;55;1104;-88
2021/09/02 16:11:47;127016.00;0.42;220.18;0.00;0.00;0.62;;;;;26.20;1.00;;;;;;2581136;55;1330;-88
2021/09/02 16:14:14;135641.00;0.45;235.06;0.00;0.00;0.62;;;;;26.30;1.00;;;;;;2581461;55;1164;-88
2021/09/02 16:16:43;106221.00;0.35;184.31;0.00;0.00;0.62;;;;;26.10;1.00;;;;;;2586461;55;1915;-88
2021/09/02 16:19:11;168961.00;0.56;292.48;0.00;0.00;0.62;;;;;26.10;1.00;;;;;;2587251;55;1096;-88
2021/09/02 16:21:43;198142.00;0.66;342.73;0.00;0.00;0.62;;;;;26.20;1.00;;;;;;2587159;55;1398;-88
2021/09/02 16:24:10;108384.00;0.36;188.04;0.00;0.00;0.62;;;;;26.10;1.00;;;;;;2587002;55;1081;-88
2021/09/02 16:26:38;189288.00;0.63;327.48;0.00;0.00;0.62;;;;;26.20;1.00;;;;;;2586891;55;840;-88
2021/09/02 16:29:05;90115.00;0.30;156.51;0.00;0.00;0.62;;;;;26.30;1.00;;;;;;2585607;55;1108;-88
2021/09/02 16:31:33;461587.00;1.54;795.71;56.00;0.00;0.72;;;;;25.90;1.00;;;;;;2586345;55;1296;-89
2021/09/02 16:34:00;202679.00;0.68;350.54;0.00;0.00;0.62;;;;;25.90;1.00;;;;;;2587705;55;1142;-90
2021/09/02 16:36:28;300940.00;1.00;519.54;0.00;0.00;0.62;;;;;26.00;1.00;;;;;;2582924;55;1972;-89
2021/09/02 16:38:56;129154.00;0.43;223.87;0.00;0.00;0.62;;;;;26.00;1.00;;;;;;2587709;55;1042;-89
2021/09/02 16:41:23;215947.00;0.72;373.37;0.00;0.00;0.62;;;;;26.10;1.00;;;;;;2587912;55;1389;-88
2021/09/02 16:43:52;229489.00;0.76;396.67;0.00;0.00;0.62;;;;;25.70;1.00;;;;;;2582508;55;1009;-88
2021/09/02 16:46:21;264608.00;0.88;457.07;43357.00;0.14;75.70;;;;;25.70;1.00;;;;;;2576184;55;1088;-88
2021/09/02 16:48:49;29709.00;0.10;52.08;0.00;0.00;0.62;;;;;25.60;1.00;;;;;;2576439;55;1056;-89
2021/09/02 16:51:16;164370.00;0.55;284.57;0.00;0.00;0.62;;;;;25.60;1.00;;;;;;2577412;55;1358;-87
2021/09/02 16:53:44;92438.00;0.31;160.52;0.00;0.00;0.62;;;;;25.60;1.00;;;;;;2564179;55;1094;-88
2021/09/02 16:58:52;59467.00;0.20;103.56;0.00;0.00;0.62;;;;;25.50;1.00;;;;;;2539247;56;927;-88
2021/09/02 17:01:19;117088104.00;390.29;65022520.00;0.00;0.00;0.62;;;;;25.40;1.00;;;;;;2541238;56;1313;-89
2021/09/02 17:03:46;47253.00;0.16;82.44;0.00;0.00;0.62;;;;;25.40;1.00;;;;;;2533230;56;1060;-88
2021/09/02 17:06:13;267335.00;0.89;461.76;0.00;0.00;0.62;;;;;25.30;1.00;;;;;;2541538;56;1118;-87
2021/09/02 17:08:40;122285.00;0.41;212.02;0.00;0.00;0.62;;;;;25.40;1.00;;;;;;2531683;56;1142;-88
2021/09/02 17:11:09;245198.00;0.82;423.69;0.00;0.00;0.62;;;;;25.30;1.00;;;;;;2523112;56;1370;-88
2021/09/02 17:13:36;40974.00;0.14;71.57;0.00;0.00;0.62;;;;;25.20;1.00;;;;;;2539455;56;1107;-87
2021/09/02 17:16:03;148928.00;0.50;257.96;0.00;0.00;0.62;;;;;25.30;1.00;;;;;;2545569;56;1915;-88
2021/09/02 17:18:30;71496.00;0.24;124.35;0.00;0.00;0.62;;;;;25.30;1.00;;;;;;2546145;56;1035;-90
2021/09/02 17:21:00;66450.00;0.22;115.63;0.00;0.00;0.62;;;;;25.10;1.00;;;;;;2546601;56;1398;-89
2021/09/02 17:23:27;156968.00;0.52;271.82;0.00;0.00;0.62;;;;;25.10;1.00;;;;;;2546502;56;1134;-89
2021/09/02 17:25:55;136317.00;0.45;236.22;0.00;0.00;0.62;;;;;25.10;1.00;;;;;;2546604;56;1095;-88
2021/09/02 17:28:24;96141.00;0.32;166.91;0.00;0.00;0.62;;;;;25.10;1.00;;;;;;2550716;56;1087;-88
2021/09/02 17:30:51;463611.00;1.55;799.20;39550.00;0.13;69.11;;;;;25.10;1.00;;;;;;2557103;55;1318;-89
2021/09/02 17:33:21;169426.00;0.56;293.28;0.00;0.00;0.62;;;;;24.80;1.00;;;;;;2574298;55;1034;-90
2021/09/02 17:35:48;205070.00;0.68;354.65;0.00;0.00;0.62;;;;;24.80;1.00;;;;;;2587754;55;1898;-89
2021/09/02 17:38:15;105471.00;0.35;183.01;0.00;0.00;0.62;;;;;24.70;1.00;;;;;;2582995;55;1082;-88
2021/09/02 17:40:42;174021.00;0.58;301.19;0.00;0.00;0.62;;;;;24.70;1.00;;;;;;2582078;55;1113;-87
2021/09/02 17:43:10;164974.00;0.55;285.61;0.00;0.00;0.62;;;;;24.60;1.00;;;;;;2577698;55;1212;-89
2021/09/02 17:45:41;222427.00;0.74;384.52;5217.00;0.02;9.66;;;;;24.70;1.00;;;;;;2577540;55;1084;-88
2021/09/02 17:48:11;291091.00;0.97;502.60;0.00;0.00;0.62;;;;;24.70;1.00;;;;;;2582377;55;1163;-88
2021/09/02 17:50:39;363465.00;1.21;627.00;0.00;0.00;0.62;;;;;24.50;1.00;;;;;;2566825;56;1149;-88
2021/09/02 17:53:06;178248.00;0.59;308.47;0.00;0.00;0.62;;;;;24.40;1.00;;;;;;2567085;56;1352;-91
2021/09/02 17:55:33;242325.00;0.81;418.75;0.00;0.00;0.62;;;;;24.50;1.00;;;;;;2567411;56;1944;-91
2021/09/02 17:58:00;104692.00;0.35;181.67;0.00;0.00;0.62;;;;;24.50;1.00;;;;;;2559570;56;1110;-91
2021/09/02 18:00:28;135044.00;0.45;234.03;7216.00;0.02;13.13;;;;;24.50;1.00;;;;;;2572727;55;1137;-92
2021/09/02 18:03:01;430915.00;1.44;742.96;0.00;0.00;0.62;;;;;24.40;1.00;;;;;;2572504;55;1317;-91
2021/09/02 18:05:32;107666.00;0.36;186.80;0.00;0.00;0.62;;;;;24.30;1.00;;;;;;2562070;56;931;-89
2021/09/02 18:08:00;63198.00;0.21;110.00;0.00;0.00;0.62;;;;;24.20;1.00;;;;;;2565118;55;1164;-92
2021/09/02 18:10:27;206633.00;0.69;357.34;0.00;0.00;0.62;;;;;24.10;1.00;;;;;;2577946;55;1010;-91
2021/09/02 18:13:02;328263.00;1.09;566.50;0.00;0.00;0.62;;;;;24.00;1.00;;;;;;2577703;55;1450;-90
2021/09/02 18:16:10;94554.00;0.32;164.17;0.00;0.00;0.62;;;;;24.10;1.00;;;;;;2572329;55;1957;-91
2021/09/02 18:18:47;183749.00;0.61;317.95;0.00;0.00;0.62;;;;;24.10;1.00;;;;;;2561993;56;1061;-90
2021/09/02 20:04:34;165464.00;0.55;286.45;0.00;0.00;0.62;;;;;20.80;1.00;;;;;;2581378;55;590;-90
2021/09/02 20:07:07;276314.00;0.92;477.20;0.00;0.00;0.62;;;;;20.60;1.00;;;;;;2583681;55;999;-90
2021/09/02 20:09:39;266069.00;0.89;459.58;0.00;0.00;0.62;;;;;20.60;1.00;;;;;;2583651;55;961;-89
2021/09/02 20:12:08;374399.00;1.25;645.80;7244.00;0.02;13.17;;;;;20.60;1.00;;;;;;2586401;55;1585;-89
2021/09/02 20:14:38;320684.00;1.07;553.47;0.00;0.00;0.62;;;;;20.60;1.00;;;;;;2588748;55;1573;-89
2021/09/02 20:17:09;381161.00;1.27;657.42;65834.00;0.22;114.56;;;;;20.50;1.00;;;;;;2588841;55;1902;-91
2021/09/02 20:19:41;313788.00;1.05;541.62;0.00;0.00;0.62;;;;;20.50;1.00;;;;;;2588900;55;1634;-90
2021/09/02 20:22:11;338742.00;1.13;584.51;0.00;0.00;0.62;;;;;20.50;1.00;;;;;;2586712;55;1419;-91
2021/09/02 20:24:41;336388.00;1.12;580.47;68183.00;0.23;118.62;;;;;20.50;1.00;;;;;;2586738;55;1092;-89
2021/09/02 20:27:08;203680.00;0.68;352.26;0.00;0.00;0.62;;;;;20.50;1.00;;;;;;2588912;55;1091;-92
2021/09/02 20:29:48;333819.00;1.11;576.05;13950.00;0.05;24.79;;;;;20.50;1.00;;;;;;2588929;55;1665;-92
2021/09/02 20:32:18;373973.00;1.25;645.07;0.00;0.00;0.62;;;;;20.50;1.00;;;;;;2586696;55;1444;-89
2021/09/02 20:34:46;306931.00;1.02;529.83;0.00;0.00;0.62;;;;;20.50;1.00;;;;;;2589019;55;1080;-89
2021/09/02 20:37:19;573444.00;1.91;988.39;42548.00;0.14;74.30;;;;;20.20;1.00;;;;;;2588865;55;1964;-91
2021/09/02 20:39:53;253351.00;0.84;437.71;0.00;0.00;0.62;;;;;20.10;1.00;;;;;;2586765;55;1109;-92
2021/09/02 20:42:31;78995.00;0.26;137.30;0.00;0.00;0.62;;;;;20.40;1.00;;;;;;2586759;55;1335;-92
2021/09/02 20:45:02;131414.00;0.44;227.77;0.00;0.00;0.62;;;;;20.80;1.00;;;;;;2588894;55;1062;-90
2021/09/02 20:47:31;297994.00;0.99;514.47;0.00;0.00;0.62;;;;;20.90;1.00;;;;;;2589023;55;1112;-91
2021/09/02 20:50:06;343569.00;1.15;592.81;0.00;0.00;0.62;;;;;20.90;1.00;;;;;;2588949;55;990;-90
2021/09/02 20:52:37;197005.00;0.66;340.77;0.00;0.00;0.62;;;;;20.80;1.00;;;;;;2588889;55;1760;-92
2021/09/02 20:55:06;210701.00;0.70;364.34;25046.00;0.08;44.01;;;;;20.90;1.00;;;;;;2586697;55;1008;-91
2021/09/02 20:57:34;342309.00;1.14;590.64;0.00;0.00;0.62;;;;;21.00;1.00;;;;;;2586565;55;1907;-91
2021/09/02 21:00:02;161035.00;0.54;278.82;0.00;0.00;0.62;;;;;21.00;1.00;;;;;;2586675;55;1092;-92
2021/09/02 21:02:32;188157.00;0.63;325.54;0.00;0.00;0.62;;;;;21.10;1.00;;;;;;2588763;55;1621;-90
2021/09/02 21:05:12;295440.00;0.98;510.08;0.00;0.00;0.62;;;;;21.20;1.00;;;;;;2588941;55;1007;-90
2021/09/02 21:07:44;176508.00;0.59;305.48;0.00;0.00;0.62;;;;;20.80;1.00;;;;;;2586759;55;1062;-91
2021/09/02 21:10:13;226690.00;0.76;391.85;0.00;0.00;0.62;;;;;20.70;1.00;;;;;;2586715;55;1050;-91
2021/09/02 21:12:42;254705.00;0.85;440.04;22051.00;0.07;38.82;;;;;20.50;1.00;;;;;;2586653;55;1346;-90
2021/09/02 21:15:21;134312.00;0.45;232.76;0.00;0.00;0.62;;;;;20.50;1.00;;;;;;2589000;55;934;-91
2021/09/02 21:17:49;184984.00;0.62;320.07;0.00;0.00;0.62;;;;;20.50;1.00;;;;;;2588779;55;1913;-91
2021/09/02 21:20:19;260540.00;0.87;450.08;0.00;0.00;0.62;;;;;20.50;1.00;;;;;;2586702;55;1064;-91
2021/09/02 21:22:56;253362.00;0.84;437.73;0.00;0.00;0.62;;;;;20.30;1.00;;;;;;2588970;55;1387;-91
2021/09/02 21:25:28;282271.00;0.94;487.44;0.00;0.00;0.62;;;;;20.30;1.00;;;;;;2586730;55;1093;-92
2021/09/02 21:28:07;278745.00;0.93;481.38;0.00;0.00;0.62;;;;;20.50;1.00;;;;;;2588892;55;1801;-91
2021/09/02 21:30:56;315031.00;1.05;543.76;0.00;0.00;0.62;;;;;20.40;1.00;;;;;;2588854;55;1697;-91
2021/09/02 21:33:31;319781.00;1.07;551.92;0.00;0.00;0.62;;;;;20.10;1.00;;;;;;2586702;55;1108;-90
2021/09/02 21:36:06;266432.00;0.89;460.21;0.00;0.00;0.62;;;;;20.30;1.00;;;;;;2586637;55;1945;-91
2021/09/02 21:38:34;80170.00;0.27;139.33;0.00;0.00;0.62;;;;;20.70;1.00;;;;;;2586704;55;1082;-92
2021/09/02 21:41:13;297182.00;0.99;513.08;0.00;0.00;0.62;;;;;20.50;1.00;;;;;;2588775;55;1698;-90
2021/09/02 21:43:53;324895.00;1.08;560.71;0.00;0.00;0.62;;;;;20.70;1.00;;;;;;2588787;55;1708;-91